sensor_id;sensor_type;location;lat;lon;timestamp;P1;durP1;ratioP1;P2;durP2;ratioP2
20629;SDS011;17386;43.846;25.950;2024-01-30T00:01:35;20.83;;;8.98;;
20629;SDS011;17386;43.846;25.950;2024-01-30T00:04:00;22.45;;;9.55;;
20629;SDS011;17386;43.846;25.950;2024-01-30T00:06:26;24.17;;;9.30;;
20629;SDS011;17386;43.846;25.950;2024-01-30T00:08:51;21.67;;;9.02;;
20629;SDS011;17386;43.846;25.950;2024-01-30T00:11:16;20.00;;;8.88;;
20629;SDS011;17386;43.846;25.950;2024-01-30T00:13:42;22.73;;;9.18;;
20629;SDS011;17386;43.846;25.950;2024-01-30T00:16:07;20.08;;;8.70;;
20629;SDS011;17386;43.846;25.950;2024-01-30T00:18:34;17.88;;;8.80;;
20629;SDS011;17386;43.846;25.950;2024-01-30T00:20:59;18.42;;;8.05;;
20629;SDS011;17386;43.846;25.950;2024-01-30T00:23:25;17.17;;;7.80;;
20629;SDS011;17386;43.846;25.950;2024-01-30T00:25:50;18.30;;;7.05;;
20629;SDS011;17386;43.846;25.950;2024-01-30T00:28:16;18.10;;;7.80;;
20629;SDS011;17386;43.846;25.950;2024-01-30T00:30:41;16.40;;;7.85;;
20629;SDS011;17386;43.846;25.950;2024-01-30T00:33:06;17.08;;;7.07;;
20629;SDS011;17386;43.846;25.950;2024-01-30T00:35:33;15.98;;;6.95;;
20629;SDS011;17386;43.846;25.950;2024-01-30T00:37:58;16.88;;;7.55;;
20629;SDS011;17386;43.846;25.950;2024-01-30T00:40:24;14.05;;;6.15;;
20629;SDS011;17386;43.846;25.950;2024-01-30T00:42:49;16.52;;;6.53;;
20629;SDS011;17386;43.846;25.950;2024-01-30T00:45:15;17.58;;;7.00;;
20629;SDS011;17386;43.846;25.950;2024-01-30T00:47:41;15.98;;;6.70;;
20629;SDS011;17386;43.846;25.950;2024-01-30T00:50:07;16.58;;;7.00;;
20629;SDS011;17386;43.846;25.950;2024-01-30T00:52:32;15.60;;;6.78;;
20629;SDS011;17386;43.846;25.950;2024-01-30T00:54:58;15.02;;;6.55;;
20629;SDS011;17386;43.846;25.950;2024-01-30T00:57:24;13.00;;;5.63;;
20629;SDS011;17386;43.846;25.950;2024-01-30T00:59:49;15.70;;;7.20;;
20629;SDS011;17386;43.846;25.950;2024-01-30T01:02:15;15.32;;;6.45;;
20629;SDS011;17386;43.846;25.950;2024-01-30T01:04:42;14.52;;;6.25;;
20629;SDS011;17386;43.846;25.950;2024-01-30T01:07:07;15.35;;;5.95;;
20629;SDS011;17386;43.846;25.950;2024-01-30T01:09:33;15.63;;;6.57;;
20629;SDS011;17386;43.846;25.950;2024-01-30T01:11:58;13.40;;;6.55;;
20629;SDS011;17386;43.846;25.950;2024-01-30T01:14:24;14.68;;;7.07;;
20629;SDS011;17386;43.846;25.950;2024-01-30T01:16:49;15.13;;;6.72;;
20629;SDS011;17386;43.846;25.950;2024-01-30T01:19:14;16.42;;;6.50;;
20629;SDS011;17386;43.846;25.950;2024-01-30T01:21:40;17.27;;;7.15;;
20629;SDS011;17386;43.846;25.950;2024-01-30T01:24:05;17.98;;;6.18;;
20629;SDS011;17386;43.846;25.950;2024-01-30T01:26:30;17.67;;;6.88;;
20629;SDS011;17386;43.846;25.950;2024-01-30T01:28:56;16.17;;;6.88;;
20629;SDS011;17386;43.846;25.950;2024-01-30T01:31:21;18.20;;;6.63;;
20629;SDS011;17386;43.846;25.950;2024-01-30T01:33:49;14.07;;;6.03;;
20629;SDS011;17386;43.846;25.950;2024-01-30T01:36:15;17.42;;;6.18;;
20629;SDS011;17386;43.846;25.950;2024-01-30T01:38:40;14.40;;;5.70;;
20629;SDS011;17386;43.846;25.950;2024-01-30T01:41:06;15.15;;;6.68;;
20629;SDS011;17386;43.846;25.950;2024-01-30T01:43:31;17.48;;;7.03;;
20629;SDS011;17386;43.846;25.950;2024-01-30T01:45:56;18.10;;;6.35;;
20629;SDS011;17386;43.846;25.950;2024-01-30T01:48:22;12.98;;;6.13;;
20629;SDS011;17386;43.846;25.950;2024-01-30T01:50:48;16.55;;;6.53;;
20629;SDS011;17386;43.846;25.950;2024-01-30T01:53:13;14.32;;;6.28;;
20629;SDS011;17386;43.846;25.950;2024-01-30T01:55:40;13.40;;;6.82;;
20629;SDS011;17386;43.846;25.950;2024-01-30T01:58:06;12.57;;;6.03;;
20629;SDS011;17386;43.846;25.950;2024-01-30T02:00:33;12.25;;;5.47;;
20629;SDS011;17386;43.846;25.950;2024-01-30T02:03:01;16.35;;;6.70;;
20629;SDS011;17386;43.846;25.950;2024-01-30T02:05:29;12.13;;;5.90;;
20629;SDS011;17386;43.846;25.950;2024-01-30T02:07:55;12.75;;;5.93;;
20629;SDS011;17386;43.846;25.950;2024-01-30T02:10:21;15.00;;;6.30;;
20629;SDS011;17386;43.846;25.950;2024-01-30T02:12:46;14.30;;;5.90;;
20629;SDS011;17386;43.846;25.950;2024-01-30T02:15:13;16.35;;;6.65;;
20629;SDS011;17386;43.846;25.950;2024-01-30T02:17:39;15.38;;;6.45;;
20629;SDS011;17386;43.846;25.950;2024-01-30T02:20:04;15.20;;;6.47;;
20629;SDS011;17386;43.846;25.950;2024-01-30T02:22:30;16.88;;;6.95;;
20629;SDS011;17386;43.846;25.950;2024-01-30T02:24:59;11.23;;;5.53;;
20629;SDS011;17386;43.846;25.950;2024-01-30T02:27:24;17.35;;;6.45;;
20629;SDS011;17386;43.846;25.950;2024-01-30T02:29:50;15.43;;;7.03;;
20629;SDS011;17386;43.846;25.950;2024-01-30T02:32:15;13.45;;;5.70;;
20629;SDS011;17386;43.846;25.950;2024-01-30T02:34:41;14.38;;;6.45;;
20629;SDS011;17386;43.846;25.950;2024-01-30T02:37:06;14.30;;;6.10;;
20629;SDS011;17386;43.846;25.950;2024-01-30T02:39:32;13.40;;;5.72;;
20629;SDS011;17386;43.846;25.950;2024-01-30T02:41:57;13.52;;;5.97;;
20629;SDS011;17386;43.846;25.950;2024-01-30T02:44:22;12.05;;;5.55;;
20629;SDS011;17386;43.846;25.950;2024-01-30T02:46:48;13.55;;;5.97;;
20629;SDS011;17386;43.846;25.950;2024-01-30T02:49:13;13.82;;;6.05;;
20629;SDS011;17386;43.846;25.950;2024-01-30T02:51:39;14.00;;;6.63;;
20629;SDS011;17386;43.846;25.950;2024-01-30T02:54:04;14.88;;;6.38;;
20629;SDS011;17386;43.846;25.950;2024-01-30T02:56:29;14.07;;;5.82;;
20629;SDS011;17386;43.846;25.950;2024-01-30T02:58:55;16.35;;;6.22;;
20629;SDS011;17386;43.846;25.950;2024-01-30T03:01:20;11.88;;;5.18;;
20629;SDS011;17386;43.846;25.950;2024-01-30T03:03:45;13.45;;;6.45;;
20629;SDS011;17386;43.846;25.950;2024-01-30T03:06:11;12.68;;;6.78;;
20629;SDS011;17386;43.846;25.950;2024-01-30T03:08:36;16.35;;;6.22;;
20629;SDS011;17386;43.846;25.950;2024-01-30T03:11:02;12.88;;;6.15;;
20629;SDS011;17386;43.846;25.950;2024-01-30T03:13:27;15.32;;;5.50;;
20629;SDS011;17386;43.846;25.950;2024-01-30T03:15:53;12.65;;;5.85;;
20629;SDS011;17386;43.846;25.950;2024-01-30T03:18:19;13.77;;;5.22;;
20629;SDS011;17386;43.846;25.950;2024-01-30T03:20:44;15.10;;;5.57;;
20629;SDS011;17386;43.846;25.950;2024-01-30T03:23:09;12.52;;;5.85;;
20629;SDS011;17386;43.846;25.950;2024-01-30T03:25:37;13.40;;;5.88;;
20629;SDS011;17386;43.846;25.950;2024-01-30T03:28:03;12.98;;;5.57;;
20629;SDS011;17386;43.846;25.950;2024-01-30T03:30:28;16.73;;;7.25;;
20629;SDS011;17386;43.846;25.950;2024-01-30T03:32:54;15.13;;;6.60;;
20629;SDS011;17386;43.846;25.950;2024-01-30T03:35:19;22.45;;;6.18;;
20629;SDS011;17386;43.846;25.950;2024-01-30T03:37:44;13.65;;;5.60;;
20629;SDS011;17386;43.846;25.950;2024-01-30T03:40:10;11.30;;;4.85;;
20629;SDS011;17386;43.846;25.950;2024-01-30T03:42:36;12.50;;;5.63;;
20629;SDS011;17386;43.846;25.950;2024-01-30T03:45:01;12.48;;;4.95;;
20629;SDS011;17386;43.846;25.950;2024-01-30T03:47:27;13.00;;;6.00;;
20629;SDS011;17386;43.846;25.950;2024-01-30T03:49:52;13.77;;;5.05;;
20629;SDS011;17386;43.846;25.950;2024-01-30T03:52:18;14.30;;;6.00;;
20629;SDS011;17386;43.846;25.950;2024-01-30T03:54:43;14.52;;;5.75;;
20629;SDS011;17386;43.846;25.950;2024-01-30T03:57:09;11.48;;;4.95;;
20629;SDS011;17386;43.846;25.950;2024-01-30T03:59:34;12.60;;;5.47;;
20629;SDS011;17386;43.846;25.950;2024-01-30T04:02:00;14.25;;;5.38;;
20629;SDS011;17386;43.846;25.950;2024-01-30T04:04:25;13.57;;;5.22;;
20629;SDS011;17386;43.846;25.950;2024-01-30T04:06:50;11.77;;;5.13;;
20629;SDS011;17386;43.846;25.950;2024-01-30T04:09:16;13.07;;;5.90;;
20629;SDS011;17386;43.846;25.950;2024-01-30T04:11:41;11.10;;;4.70;;
20629;SDS011;17386;43.846;25.950;2024-01-30T04:14:07;12.65;;;5.05;;
20629;SDS011;17386;43.846;25.950;2024-01-30T04:16:33;12.93;;;5.45;;
20629;SDS011;17386;43.846;25.950;2024-01-30T04:18:59;12.80;;;5.43;;
20629;SDS011;17386;43.846;25.950;2024-01-30T04:21:24;10.68;;;5.03;;
20629;SDS011;17386;43.846;25.950;2024-01-30T04:23:50;15.80;;;5.30;;
20629;SDS011;17386;43.846;25.950;2024-01-30T04:26:16;11.95;;;5.43;;
20629;SDS011;17386;43.846;25.950;2024-01-30T04:28:42;10.93;;;5.25;;
20629;SDS011;17386;43.846;25.950;2024-01-30T04:31:09;12.38;;;5.28;;
20629;SDS011;17386;43.846;25.950;2024-01-30T04:33:34;13.95;;;5.78;;
20629;SDS011;17386;43.846;25.950;2024-01-30T04:35:59;11.80;;;5.10;;
20629;SDS011;17386;43.846;25.950;2024-01-30T04:38:25;16.65;;;6.32;;
20629;SDS011;17386;43.846;25.950;2024-01-30T04:40:50;12.70;;;6.25;;
20629;SDS011;17386;43.846;25.950;2024-01-30T04:43:16;12.77;;;6.57;;
20629;SDS011;17386;43.846;25.950;2024-01-30T04:45:41;12.57;;;5.55;;
20629;SDS011;17386;43.846;25.950;2024-01-30T04:48:07;13.90;;;5.55;;
20629;SDS011;17386;43.846;25.950;2024-01-30T04:50:32;12.82;;;5.10;;
20629;SDS011;17386;43.846;25.950;2024-01-30T04:52:58;12.52;;;5.60;;
20629;SDS011;17386;43.846;25.950;2024-01-30T04:55:23;11.48;;;5.10;;
20629;SDS011;17386;43.846;25.950;2024-01-30T04:57:49;16.13;;;6.13;;
20629;SDS011;17386;43.846;25.950;2024-01-30T05:00:14;11.73;;;4.65;;
20629;SDS011;17386;43.846;25.950;2024-01-30T05:02:40;11.75;;;4.63;;
20629;SDS011;17386;43.846;25.950;2024-01-30T05:05:05;15.00;;;6.20;;
20629;SDS011;17386;43.846;25.950;2024-01-30T05:07:31;12.80;;;5.43;;
20629;SDS011;17386;43.846;25.950;2024-01-30T05:09:56;12.45;;;5.35;;
20629;SDS011;17386;43.846;25.950;2024-01-30T05:12:21;12.57;;;5.72;;
20629;SDS011;17386;43.846;25.950;2024-01-30T05:14:47;13.20;;;5.43;;
20629;SDS011;17386;43.846;25.950;2024-01-30T05:17:12;13.20;;;5.85;;
20629;SDS011;17386;43.846;25.950;2024-01-30T05:19:38;18.90;;;7.22;;
20629;SDS011;17386;43.846;25.950;2024-01-30T05:22:03;13.80;;;5.72;;
20629;SDS011;17386;43.846;25.950;2024-01-30T05:24:29;16.90;;;6.97;;
20629;SDS011;17386;43.846;25.950;2024-01-30T05:26:54;15.70;;;6.28;;
20629;SDS011;17386;43.846;25.950;2024-01-30T05:29:20;19.77;;;7.20;;
20629;SDS011;17386;43.846;25.950;2024-01-30T05:31:45;17.48;;;6.78;;
20629;SDS011;17386;43.846;25.950;2024-01-30T05:34:10;16.42;;;6.72;;
20629;SDS011;17386;43.846;25.950;2024-01-30T05:36:36;13.93;;;6.55;;
20629;SDS011;17386;43.846;25.950;2024-01-30T05:39:01;18.00;;;7.38;;
20629;SDS011;17386;43.846;25.950;2024-01-30T05:41:27;17.13;;;6.90;;
20629;SDS011;17386;43.846;25.950;2024-01-30T05:43:53;14.80;;;6.25;;
20629;SDS011;17386;43.846;25.950;2024-01-30T05:46:18;14.20;;;6.97;;
20629;SDS011;17386;43.846;25.950;2024-01-30T05:48:43;17.27;;;7.45;;
20629;SDS011;17386;43.846;25.950;2024-01-30T05:51:09;14.98;;;6.75;;
20629;SDS011;17386;43.846;25.950;2024-01-30T05:53:34;14.13;;;6.13;;
20629;SDS011;17386;43.846;25.950;2024-01-30T05:56:03;16.00;;;6.93;;
20629;SDS011;17386;43.846;25.950;2024-01-30T05:58:31;17.98;;;7.93;;
20629;SDS011;17386;43.846;25.950;2024-01-30T06:00:56;17.38;;;7.35;;
20629;SDS011;17386;43.846;25.950;2024-01-30T06:03:22;21.13;;;8.23;;
20629;SDS011;17386;43.846;25.950;2024-01-30T06:05:48;21.02;;;8.75;;
20629;SDS011;17386;43.846;25.950;2024-01-30T06:08:13;22.67;;;8.50;;
20629;SDS011;17386;43.846;25.950;2024-01-30T06:10:39;19.55;;;7.70;;
20629;SDS011;17386;43.846;25.950;2024-01-30T06:13:05;16.85;;;7.28;;
20629;SDS011;17386;43.846;25.950;2024-01-30T06:15:30;22.33;;;9.80;;
20629;SDS011;17386;43.846;25.950;2024-01-30T06:17:57;24.77;;;9.52;;
20629;SDS011;17386;43.846;25.950;2024-01-30T06:20:23;22.08;;;9.55;;
20629;SDS011;17386;43.846;25.950;2024-01-30T06:22:48;20.75;;;9.00;;
20629;SDS011;17386;43.846;25.950;2024-01-30T06:25:14;21.80;;;8.40;;
20629;SDS011;17386;43.846;25.950;2024-01-30T06:27:39;18.35;;;7.32;;
20629;SDS011;17386;43.846;25.950;2024-01-30T06:30:05;20.85;;;8.73;;
20629;SDS011;17386;43.846;25.950;2024-01-30T06:32:31;18.90;;;8.73;;
20629;SDS011;17386;43.846;25.950;2024-01-30T06:34:59;27.23;;;9.65;;
20629;SDS011;17386;43.846;25.950;2024-01-30T06:37:25;22.92;;;9.25;;
20629;SDS011;17386;43.846;25.950;2024-01-30T06:39:50;21.08;;;8.85;;
20629;SDS011;17386;43.846;25.950;2024-01-30T06:42:17;21.15;;;10.00;;
20629;SDS011;17386;43.846;25.950;2024-01-30T06:44:43;25.30;;;10.60;;
20629;SDS011;17386;43.846;25.950;2024-01-30T06:47:09;23.95;;;8.95;;
20629;SDS011;17386;43.846;25.950;2024-01-30T06:49:34;19.60;;;8.20;;
20629;SDS011;17386;43.846;25.950;2024-01-30T06:52:00;24.88;;;11.52;;
20629;SDS011;17386;43.846;25.950;2024-01-30T06:54:25;21.65;;;9.65;;
20629;SDS011;17386;43.846;25.950;2024-01-30T06:56:51;22.83;;;9.25;;
20629;SDS011;17386;43.846;25.950;2024-01-30T06:59:16;23.75;;;8.60;;
20629;SDS011;17386;43.846;25.950;2024-01-30T07:01:41;21.27;;;8.75;;
20629;SDS011;17386;43.846;25.950;2024-01-30T07:04:07;20.58;;;9.68;;
20629;SDS011;17386;43.846;25.950;2024-01-30T07:06:32;22.63;;;9.55;;
20629;SDS011;17386;43.846;25.950;2024-01-30T07:08:58;27.52;;;13.65;;
20629;SDS011;17386;43.846;25.950;2024-01-30T07:11:23;21.17;;;9.27;;
20629;SDS011;17386;43.846;25.950;2024-01-30T07:13:51;24.83;;;10.23;;
20629;SDS011;17386;43.846;25.950;2024-01-30T07:18:43;22.95;;;9.65;;
20629;SDS011;17386;43.846;25.950;2024-01-30T07:21:08;29.08;;;10.80;;
20629;SDS011;17386;43.846;25.950;2024-01-30T07:23:34;24.48;;;10.73;;
20629;SDS011;17386;43.846;25.950;2024-01-30T07:26:00;22.10;;;9.77;;
20629;SDS011;17386;43.846;25.950;2024-01-30T07:28:26;21.90;;;9.35;;
20629;SDS011;17386;43.846;25.950;2024-01-30T07:30:51;20.30;;;9.45;;
20629;SDS011;17386;43.846;25.950;2024-01-30T07:33:17;20.33;;;9.40;;
20629;SDS011;17386;43.846;25.950;2024-01-30T07:35:42;24.35;;;11.05;;
20629;SDS011;17386;43.846;25.950;2024-01-30T07:38:08;24.48;;;11.77;;
20629;SDS011;17386;43.846;25.950;2024-01-30T07:40:33;31.23;;;14.90;;
20629;SDS011;17386;43.846;25.950;2024-01-30T07:42:59;42.60;;;16.52;;
20629;SDS011;17386;43.846;25.950;2024-01-30T07:45:25;32.03;;;13.18;;
20629;SDS011;17386;43.846;25.950;2024-01-30T07:47:52;34.95;;;12.85;;
20629;SDS011;17386;43.846;25.950;2024-01-30T07:50:18;32.67;;;14.00;;
20629;SDS011;17386;43.846;25.950;2024-01-30T07:52:44;24.75;;;10.80;;
20629;SDS011;17386;43.846;25.950;2024-01-30T07:55:09;22.15;;;9.90;;
20629;SDS011;17386;43.846;25.950;2024-01-30T07:57:34;23.08;;;10.38;;
20629;SDS011;17386;43.846;25.950;2024-01-30T08:00:00;20.50;;;10.68;;
20629;SDS011;17386;43.846;25.950;2024-01-30T08:02:30;34.10;;;13.20;;
20629;SDS011;17386;43.846;25.950;2024-01-30T08:04:56;28.13;;;12.15;;
20629;SDS011;17386;43.846;25.950;2024-01-30T08:07:21;34.25;;;13.77;;
20629;SDS011;17386;43.846;25.950;2024-01-30T08:09:47;36.75;;;13.52;;
20629;SDS011;17386;43.846;25.950;2024-01-30T08:12:13;31.80;;;13.43;;
20629;SDS011;17386;43.846;25.950;2024-01-30T08:14:38;22.45;;;9.95;;
20629;SDS011;17386;43.846;25.950;2024-01-30T08:17:04;23.60;;;10.70;;
20629;SDS011;17386;43.846;25.950;2024-01-30T08:19:30;26.70;;;10.95;;
20629;SDS011;17386;43.846;25.950;2024-01-30T08:21:55;24.73;;;11.05;;
20629;SDS011;17386;43.846;25.950;2024-01-30T08:24:21;23.65;;;10.90;;
20629;SDS011;17386;43.846;25.950;2024-01-30T08:26:46;22.65;;;10.13;;
20629;SDS011;17386;43.846;25.950;2024-01-30T08:29:12;24.90;;;10.75;;
20629;SDS011;17386;43.846;25.950;2024-01-30T08:31:37;29.42;;;11.95;;
20629;SDS011;17386;43.846;25.950;2024-01-30T08:34:02;27.25;;;12.32;;
20629;SDS011;17386;43.846;25.950;2024-01-30T08:36:28;31.77;;;11.95;;
20629;SDS011;17386;43.846;25.950;2024-01-30T08:38:53;28.00;;;11.50;;
20629;SDS011;17386;43.846;25.950;2024-01-30T08:41:19;23.13;;;11.00;;
20629;SDS011;17386;43.846;25.950;2024-01-30T08:43:44;22.08;;;10.02;;
20629;SDS011;17386;43.846;25.950;2024-01-30T08:46:10;25.13;;;10.52;;
20629;SDS011;17386;43.846;25.950;2024-01-30T08:48:36;24.20;;;10.25;;
20629;SDS011;17386;43.846;25.950;2024-01-30T08:51:01;26.33;;;11.30;;
20629;SDS011;17386;43.846;25.950;2024-01-30T08:53:26;22.92;;;10.07;;
20629;SDS011;17386;43.846;25.950;2024-01-30T08:55:52;28.27;;;10.13;;
20629;SDS011;17386;43.846;25.950;2024-01-30T08:58:17;20.38;;;9.05;;
20629;SDS011;17386;43.846;25.950;2024-01-30T09:00:44;22.52;;;10.30;;
20629;SDS011;17386;43.846;25.950;2024-01-30T09:03:09;34.13;;;13.90;;
20629;SDS011;17386;43.846;25.950;2024-01-30T09:05:35;22.65;;;10.30;;
20629;SDS011;17386;43.846;25.950;2024-01-30T09:08:00;21.02;;;9.75;;
20629;SDS011;17386;43.846;25.950;2024-01-30T09:10:25;23.80;;;11.07;;
20629;SDS011;17386;43.846;25.950;2024-01-30T09:12:51;17.88;;;9.15;;
20629;SDS011;17386;43.846;25.950;2024-01-30T09:15:17;19.75;;;8.93;;
20629;SDS011;17386;43.846;25.950;2024-01-30T09:17:43;19.70;;;9.38;;
20629;SDS011;17386;43.846;25.950;2024-01-30T09:20:09;23.70;;;10.10;;
20629;SDS011;17386;43.846;25.950;2024-01-30T09:22:35;21.25;;;9.07;;
20629;SDS011;17386;43.846;25.950;2024-01-30T09:25:00;22.77;;;11.95;;
20629;SDS011;17386;43.846;25.950;2024-01-30T09:27:26;19.20;;;9.35;;
20629;SDS011;17386;43.846;25.950;2024-01-30T09:29:51;22.23;;;9.35;;
20629;SDS011;17386;43.846;25.950;2024-01-30T09:32:17;17.65;;;8.68;;
20629;SDS011;17386;43.846;25.950;2024-01-30T09:34:42;20.88;;;9.48;;
20629;SDS011;17386;43.846;25.950;2024-01-30T09:37:08;20.13;;;9.18;;
20629;SDS011;17386;43.846;25.950;2024-01-30T09:39:33;18.67;;;8.70;;
20629;SDS011;17386;43.846;25.950;2024-01-30T09:44:36;20.58;;;9.27;;
20629;SDS011;17386;43.846;25.950;2024-01-30T09:47:03;18.67;;;8.60;;
20629;SDS011;17386;43.846;25.950;2024-01-30T09:49:33;16.55;;;7.80;;
20629;SDS011;17386;43.846;25.950;2024-01-30T09:52:00;19.10;;;8.60;;
20629;SDS011;17386;43.846;25.950;2024-01-30T09:54:28;17.77;;;8.90;;
20629;SDS011;17386;43.846;25.950;2024-01-30T09:56:56;17.42;;;8.15;;
20629;SDS011;17386;43.846;25.950;2024-01-30T09:59:21;20.63;;;8.82;;
20629;SDS011;17386;43.846;25.950;2024-01-30T10:01:47;20.88;;;8.93;;
20629;SDS011;17386;43.846;25.950;2024-01-30T10:04:13;17.50;;;8.68;;
20629;SDS011;17386;43.846;25.950;2024-01-30T10:06:38;29.67;;;12.80;;
20629;SDS011;17386;43.846;25.950;2024-01-30T10:09:05;45.38;;;17.42;;
20629;SDS011;17386;43.846;25.950;2024-01-30T10:11:30;96.57;;;31.60;;
20629;SDS011;17386;43.846;25.950;2024-01-30T10:13:56;19.58;;;8.80;;
20629;SDS011;17386;43.846;25.950;2024-01-30T10:16:21;16.85;;;8.70;;
20629;SDS011;17386;43.846;25.950;2024-01-30T10:18:47;15.75;;;8.10;;
20629;SDS011;17386;43.846;25.950;2024-01-30T10:21:12;17.95;;;7.95;;
20629;SDS011;17386;43.846;25.950;2024-01-30T10:23:38;17.08;;;8.52;;
20629;SDS011;17386;43.846;25.950;2024-01-30T10:26:03;19.13;;;8.68;;
20629;SDS011;17386;43.846;25.950;2024-01-30T10:28:29;14.98;;;7.65;;
20629;SDS011;17386;43.846;25.950;2024-01-30T10:31:01;17.45;;;9.07;;
20629;SDS011;17386;43.846;25.950;2024-01-30T10:33:29;21.13;;;9.52;;
20629;SDS011;17386;43.846;25.950;2024-01-30T10:36:01;27.05;;;15.93;;
20629;SDS011;17386;43.846;25.950;2024-01-30T10:38:29;21.00;;;9.27;;
20629;SDS011;17386;43.846;25.950;2024-01-30T10:40:59;15.43;;;7.60;;
20629;SDS011;17386;43.846;25.950;2024-01-30T10:43:32;15.23;;;7.30;;
20629;SDS011;17386;43.846;25.950;2024-01-30T10:46:10;15.20;;;7.53;;
20629;SDS011;17386;43.846;25.950;2024-01-30T10:48:42;13.93;;;7.00;;
20629;SDS011;17386;43.846;25.950;2024-01-30T10:51:09;15.85;;;7.75;;
20629;SDS011;17386;43.846;25.950;2024-01-30T10:56:03;14.98;;;7.30;;
20629;SDS011;17386;43.846;25.950;2024-01-30T10:58:29;14.02;;;7.68;;
20629;SDS011;17386;43.846;25.950;2024-01-30T11:00:55;15.70;;;7.32;;
20629;SDS011;17386;43.846;25.950;2024-01-30T11:03:21;13.98;;;7.35;;
20629;SDS011;17386;43.846;25.950;2024-01-30T11:05:50;13.75;;;7.38;;
20629;SDS011;17386;43.846;25.950;2024-01-30T11:08:22;15.90;;;7.53;;
20629;SDS011;17386;43.846;25.950;2024-01-30T11:10:49;15.90;;;7.18;;
20629;SDS011;17386;43.846;25.950;2024-01-30T11:13:15;13.00;;;6.90;;
20629;SDS011;17386;43.846;25.950;2024-01-30T11:15:41;15.90;;;7.70;;
20629;SDS011;17386;43.846;25.950;2024-01-30T11:18:06;13.05;;;6.28;;
20629;SDS011;17386;43.846;25.950;2024-01-30T11:20:32;16.33;;;6.72;;
20629;SDS011;17386;43.846;25.950;2024-01-30T11:23:00;13.05;;;7.25;;
20629;SDS011;17386;43.846;25.950;2024-01-30T11:25:31;13.88;;;6.68;;
20629;SDS011;17386;43.846;25.950;2024-01-30T11:27:57;22.23;;;8.43;;
20629;SDS011;17386;43.846;25.950;2024-01-30T11:30:26;13.57;;;5.88;;
20629;SDS011;17386;43.846;25.950;2024-01-30T11:35:24;14.27;;;5.90;;
20629;SDS011;17386;43.846;25.950;2024-01-30T11:37:49;9.75;;;5.07;;
20629;SDS011;17386;43.846;25.950;2024-01-30T11:40:15;11.68;;;5.47;;
20629;SDS011;17386;43.846;25.950;2024-01-30T11:42:41;13.75;;;6.03;;
20629;SDS011;17386;43.846;25.950;2024-01-30T11:45:08;15.70;;;6.72;;
20629;SDS011;17386;43.846;25.950;2024-01-30T11:47:35;10.13;;;4.72;;
20629;SDS011;17386;43.846;25.950;2024-01-30T11:50:02;9.38;;;5.50;;
20629;SDS011;17386;43.846;25.950;2024-01-30T11:52:28;11.65;;;5.22;;
20629;SDS011;17386;43.846;25.950;2024-01-30T11:54:54;10.30;;;4.72;;
20629;SDS011;17386;43.846;25.950;2024-01-30T11:57:19;8.60;;;4.60;;
20629;SDS011;17386;43.846;25.950;2024-01-30T11:59:45;11.43;;;6.07;;
20629;SDS011;17386;43.846;25.950;2024-01-30T12:02:15;12.77;;;5.30;;
20629;SDS011;17386;43.846;25.950;2024-01-30T12:04:40;11.45;;;4.95;;
20629;SDS011;17386;43.846;25.950;2024-01-30T12:07:06;8.10;;;4.50;;
20629;SDS011;17386;43.846;25.950;2024-01-30T12:09:32;9.85;;;4.85;;
20629;SDS011;17386;43.846;25.950;2024-01-30T12:11:57;10.23;;;5.10;;
20629;SDS011;17386;43.846;25.950;2024-01-30T12:14:23;12.63;;;5.50;;
20629;SDS011;17386;43.846;25.950;2024-01-30T12:16:50;8.70;;;4.38;;
20629;SDS011;17386;43.846;25.950;2024-01-30T12:19:22;11.27;;;5.43;;
20629;SDS011;17386;43.846;25.950;2024-01-30T12:21:53;10.60;;;4.93;;
20629;SDS011;17386;43.846;25.950;2024-01-30T12:24:24;10.93;;;5.60;;
20629;SDS011;17386;43.846;25.950;2024-01-30T12:26:50;15.35;;;6.80;;
20629;SDS011;17386;43.846;25.950;2024-01-30T12:29:17;10.27;;;4.50;;
20629;SDS011;17386;43.846;25.950;2024-01-30T12:31:42;9.60;;;4.93;;
20629;SDS011;17386;43.846;25.950;2024-01-30T12:34:09;8.60;;;4.30;;
20629;SDS011;17386;43.846;25.950;2024-01-30T12:36:34;7.25;;;4.05;;
20629;SDS011;17386;43.846;25.950;2024-01-30T12:39:01;11.95;;;5.63;;
20629;SDS011;17386;43.846;25.950;2024-01-30T12:41:26;13.13;;;8.50;;
20629;SDS011;17386;43.846;25.950;2024-01-30T12:43:54;10.70;;;5.15;;
20629;SDS011;17386;43.846;25.950;2024-01-30T12:46:24;10.13;;;4.97;;
20629;SDS011;17386;43.846;25.950;2024-01-30T12:48:52;9.25;;;4.85;;
20629;SDS011;17386;43.846;25.950;2024-01-30T12:51:18;11.93;;;4.80;;
20629;SDS011;17386;43.846;25.950;2024-01-30T12:53:44;9.07;;;4.70;;
20629;SDS011;17386;43.846;25.950;2024-01-30T12:56:09;12.40;;;5.22;;
20629;SDS011;17386;43.846;25.950;2024-01-30T12:58:34;12.73;;;4.95;;
20629;SDS011;17386;43.846;25.950;2024-01-30T13:01:00;12.55;;;5.38;;
20629;SDS011;17386;43.846;25.950;2024-01-30T13:03:25;26.63;;;14.95;;
20629;SDS011;17386;43.846;25.950;2024-01-30T13:05:51;23.08;;;12.65;;
20629;SDS011;17386;43.846;25.950;2024-01-30T13:08:17;18.63;;;8.02;;
20629;SDS011;17386;43.846;25.950;2024-01-30T13:10:43;14.30;;;6.07;;
20629;SDS011;17386;43.846;25.950;2024-01-30T13:13:08;14.10;;;6.30;;
20629;SDS011;17386;43.846;25.950;2024-01-30T13:15:34;12.90;;;6.05;;
20629;SDS011;17386;43.846;25.950;2024-01-30T13:17:59;13.10;;;6.30;;
20629;SDS011;17386;43.846;25.950;2024-01-30T13:20:25;12.30;;;6.10;;
20629;SDS011;17386;43.846;25.950;2024-01-30T13:22:50;16.67;;;6.55;;
20629;SDS011;17386;43.846;25.950;2024-01-30T13:25:16;15.18;;;7.15;;
20629;SDS011;17386;43.846;25.950;2024-01-30T13:27:41;16.40;;;6.88;;
20629;SDS011;17386;43.846;25.950;2024-01-30T13:30:07;19.83;;;9.02;;
20629;SDS011;17386;43.846;25.950;2024-01-30T13:32:34;13.93;;;7.13;;
20629;SDS011;17386;43.846;25.950;2024-01-30T13:35:00;12.88;;;6.20;;
20629;SDS011;17386;43.846;25.950;2024-01-30T13:37:25;16.73;;;6.03;;
20629;SDS011;17386;43.846;25.950;2024-01-30T13:39:51;13.77;;;6.50;;
20629;SDS011;17386;43.846;25.950;2024-01-30T13:42:16;15.75;;;7.90;;
20629;SDS011;17386;43.846;25.950;2024-01-30T13:44:42;12.20;;;6.22;;
20629;SDS011;17386;43.846;25.950;2024-01-30T13:47:08;16.17;;;6.93;;
20629;SDS011;17386;43.846;25.950;2024-01-30T13:49:34;14.45;;;6.50;;
20629;SDS011;17386;43.846;25.950;2024-01-30T13:52:00;14.10;;;6.10;;
20629;SDS011;17386;43.846;25.950;2024-01-30T13:54:25;14.60;;;6.88;;
20629;SDS011;17386;43.846;25.950;2024-01-30T13:56:51;16.65;;;7.20;;
20629;SDS011;17386;43.846;25.950;2024-01-30T13:59:16;16.30;;;7.18;;
20629;SDS011;17386;43.846;25.950;2024-01-30T14:01:47;14.55;;;6.47;;
20629;SDS011;17386;43.846;25.950;2024-01-30T14:04:13;15.55;;;6.85;;
20629;SDS011;17386;43.846;25.950;2024-01-30T14:06:39;12.90;;;5.85;;
20629;SDS011;17386;43.846;25.950;2024-01-30T14:09:05;14.50;;;7.25;;
20629;SDS011;17386;43.846;25.950;2024-01-30T14:11:30;17.15;;;6.85;;
20629;SDS011;17386;43.846;25.950;2024-01-30T14:13:56;12.88;;;6.55;;
20629;SDS011;17386;43.846;25.950;2024-01-30T14:16:21;10.95;;;6.18;;
20629;SDS011;17386;43.846;25.950;2024-01-30T14:18:47;14.57;;;6.18;;
20629;SDS011;17386;43.846;25.950;2024-01-30T14:21:13;14.07;;;6.85;;
20629;SDS011;17386;43.846;25.950;2024-01-30T14:23:38;13.52;;;6.53;;